Terminal Aerodrome Forecast
Issued by NWS Mt. Holly, NJ

Home | Current Version | Previous Version | Text Only | Print | Product List | Glossary On
Versions: 1 2 3 4 5 6 7 8 9 10 11 12 13 14 15 16 17 18 19 20 21 22 23
000
FTUS41 KPHI 272300
TAFACY
TAF
KACY 272320Z 2800/2824 30010KT P6SM SCT060
     FM281400 31013G22KT P6SM FEW050
     FM282200 30008KT P6SM BKN150=

USA.gov is the U.S. government's official web portal to all federal, state and local government web resources and services.